sensor_id;sensor_type;location;lat;lon;timestamp;temperature;humidity
4183;DHT22;2105;52.300;9.182;2023-06-14T00:01:52;14.60;5.70
4183;DHT22;2105;52.300;9.182;2023-06-14T00:04:18;14.50;51.80
4183;DHT22;2105;52.300;9.182;2023-06-14T00:06:46;14.50;99.90
4183;DHT22;2105;52.300;9.182;2023-06-14T00:09:13;14.50;99.90
4183;DHT22;2105;52.300;9.182;2023-06-14T00:11:43;14.40;99.90
4183;DHT22;2105;52.300;9.182;2023-06-14T00:14:12;14.40;99.90
4183;DHT22;2105;52.300;9.182;2023-06-14T00:16:40;14.50;90.10
4183;DHT22;2105;52.300;9.182;2023-06-14T00:19:08;14.50;99.90
4183;DHT22;2105;52.300;9.182;2023-06-14T00:21:35;14.50;99.90
4183;DHT22;2105;52.300;9.182;2023-06-14T00:24:04;14.40;99.90
4183;DHT22;2105;52.300;9.182;2023-06-14T00:26:30;14.50;99.90
4183;DHT22;2105;52.300;9.182;2023-06-14T00:28:57;14.50;94.80
4183;DHT22;2105;52.300;9.182;2023-06-14T00:31:25;14.50;99.90
4183;DHT22;2105;52.300;9.182;2023-06-14T00:33:52;14.60;1.00
4183;DHT22;2105;52.300;9.182;2023-06-14T00:36:19;14.60;22.20
4183;DHT22;2105;52.300;9.182;2023-06-14T00:38:45;14.60;1.00
4183;DHT22;2105;52.300;9.182;2023-06-14T00:41:12;14.50;1.00
4183;DHT22;2105;52.300;9.182;2023-06-14T00:43:39;14.30;94.00
4183;DHT22;2105;52.300;9.182;2023-06-14T00:46:05;14.30;98.30
4183;DHT22;2105;52.300;9.182;2023-06-14T00:48:34;14.40;91.00
4183;DHT22;2105;52.300;9.182;2023-06-14T00:51:02;14.30;99.90
4183;DHT22;2105;52.300;9.182;2023-06-14T00:53:29;14.30;71.60
4183;DHT22;2105;52.300;9.182;2023-06-14T00:55:59;14.40;71.00
4183;DHT22;2105;52.300;9.182;2023-06-14T00:58:26;14.50;1.00
4183;DHT22;2105;52.300;9.182;2023-06-14T01:00:53;14.40;21.90
4183;DHT22;2105;52.300;9.182;2023-06-14T01:03:21;14.50;1.00
4183;DHT22;2105;52.300;9.182;2023-06-14T01:05:53;14.50;1.00
4183;DHT22;2105;52.300;9.182;2023-06-14T01:08:28;14.60;1.00
4183;DHT22;2105;52.300;9.182;2023-06-14T01:11:02;14.70;1.00
4183;DHT22;2105;52.300;9.182;2023-06-14T01:13:33;14.70;1.00
4183;DHT22;2105;52.300;9.182;2023-06-14T01:16:01;14.70;1.00
4183;DHT22;2105;52.300;9.182;2023-06-14T01:18:28;14.70;1.00
4183;DHT22;2105;52.300;9.182;2023-06-14T01:20:57;14.70;1.00
4183;DHT22;2105;52.300;9.182;2023-06-14T01:23:25;14.60;1.00
4183;DHT22;2105;52.300;9.182;2023-06-14T01:25:58;14.40;1.00
4183;DHT22;2105;52.300;9.182;2023-06-14T01:28:26;14.20;13.10
4183;DHT22;2105;52.300;9.182;2023-06-14T01:30:59;14.00;99.90
4183;DHT22;2105;52.300;9.182;2023-06-14T01:33:29;13.70;99.90
4183;DHT22;2105;52.300;9.182;2023-06-14T01:35:58;13.60;1.00
4183;DHT22;2105;52.300;9.182;2023-06-14T01:38:27;13.40;1.00
4183;DHT22;2105;52.300;9.182;2023-06-14T01:40:55;13.30;1.00
4183;DHT22;2105;52.300;9.182;2023-06-14T01:43:23;13.20;1.00
4183;DHT22;2105;52.300;9.182;2023-06-14T01:45:51;13.20;87.60
4183;DHT22;2105;52.300;9.182;2023-06-14T01:48:19;13.20;32.30
4183;DHT22;2105;52.300;9.182;2023-06-14T01:50:48;13.20;32.80
4183;DHT22;2105;52.300;9.182;2023-06-14T01:53:14;13.30;12.60
4183;DHT22;2105;52.300;9.182;2023-06-14T01:55:43;13.30;17.50
4183;DHT22;2105;52.300;9.182;2023-06-14T01:58:13;13.30;19.30
4183;DHT22;2105;52.300;9.182;2023-06-14T02:00:41;13.30;1.70
4183;DHT22;2105;52.300;9.182;2023-06-14T02:03:08;13.20;33.50
4183;DHT22;2105;52.300;9.182;2023-06-14T02:05:36;13.20;47.40
4183;DHT22;2105;52.300;9.182;2023-06-14T02:08:04;13.10;99.90
4183;DHT22;2105;52.300;9.182;2023-06-14T02:10:31;13.10;99.90
4183;DHT22;2105;52.300;9.182;2023-06-14T02:12:59;13.00;80.50
4183;DHT22;2105;52.300;9.182;2023-06-14T02:15:26;12.90;99.90
4183;DHT22;2105;52.300;9.182;2023-06-14T02:17:59;12.80;99.90
4183;DHT22;2105;52.300;9.182;2023-06-14T02:20:27;12.70;1.00
4183;DHT22;2105;52.300;9.182;2023-06-14T02:22:54;12.80;99.90
4183;DHT22;2105;52.300;9.182;2023-06-14T02:25:21;12.90;99.90
4183;DHT22;2105;52.300;9.182;2023-06-14T02:27:47;13.00;99.90
4183;DHT22;2105;52.300;9.182;2023-06-14T02:30:15;13.00;99.90
4183;DHT22;2105;52.300;9.182;2023-06-14T02:32:42;13.00;99.90
4183;DHT22;2105;52.300;9.182;2023-06-14T02:35:09;13.10;94.70
4183;DHT22;2105;52.300;9.182;2023-06-14T02:37:36;13.00;62.70
4183;DHT22;2105;52.300;9.182;2023-06-14T02:40:03;12.80;99.90
4183;DHT22;2105;52.300;9.182;2023-06-14T02:42:31;12.60;99.90
4183;DHT22;2105;52.300;9.182;2023-06-14T02:44:58;12.40;99.90
4183;DHT22;2105;52.300;9.182;2023-06-14T02:47:26;12.20;1.00
4183;DHT22;2105;52.300;9.182;2023-06-14T02:49:52;12.10;1.00
4183;DHT22;2105;52.300;9.182;2023-06-14T02:52:19;12.00;90.50
4183;DHT22;2105;52.300;9.182;2023-06-14T02:54:47;11.90;99.90
4183;DHT22;2105;52.300;9.182;2023-06-14T02:57:14;11.90;99.90
4183;DHT22;2105;52.300;9.182;2023-06-14T02:59:40;11.80;99.90
4183;DHT22;2105;52.300;9.182;2023-06-14T03:02:07;11.80;1.00
4183;DHT22;2105;52.300;9.182;2023-06-14T03:04:35;11.80;99.90
4183;DHT22;2105;52.300;9.182;2023-06-14T03:07:04;11.70;1.00
4183;DHT22;2105;52.300;9.182;2023-06-14T03:09:35;11.70;1.00
4183;DHT22;2105;52.300;9.182;2023-06-14T03:12:02;11.70;1.00
4183;DHT22;2105;52.300;9.182;2023-06-14T03:14:29;11.60;1.00
4183;DHT22;2105;52.300;9.182;2023-06-14T03:16:56;11.60;1.00
4183;DHT22;2105;52.300;9.182;2023-06-14T03:19:24;11.60;1.00
4183;DHT22;2105;52.300;9.182;2023-06-14T03:21:52;11.60;1.00
4183;DHT22;2105;52.300;9.182;2023-06-14T03:24:22;11.50;1.00
4183;DHT22;2105;52.300;9.182;2023-06-14T03:26:49;11.60;35.30
4183;DHT22;2105;52.300;9.182;2023-06-14T03:29:15;11.60;73.60
4183;DHT22;2105;52.300;9.182;2023-06-14T03:31:57;11.70;1.00
4183;DHT22;2105;52.300;9.182;2023-06-14T03:34:24;11.80;1.00
4183;DHT22;2105;52.300;9.182;2023-06-14T03:36:52;11.80;1.00
4183;DHT22;2105;52.300;9.182;2023-06-14T03:39:19;11.90;1.00
4183;DHT22;2105;52.300;9.182;2023-06-14T03:41:45;12.10;1.00
4183;DHT22;2105;52.300;9.182;2023-06-14T03:44:15;12.10;1.00
4183;DHT22;2105;52.300;9.182;2023-06-14T03:46:42;12.20;99.90
4183;DHT22;2105;52.300;9.182;2023-06-14T03:49:09;12.20;1.00
4183;DHT22;2105;52.300;9.182;2023-06-14T03:51:36;12.30;99.90
4183;DHT22;2105;52.300;9.182;2023-06-14T03:54:04;12.30;99.90
4183;DHT22;2105;52.300;9.182;2023-06-14T03:56:31;12.40;99.90
4183;DHT22;2105;52.300;9.182;2023-06-14T03:58:58;12.40;99.90
4183;DHT22;2105;52.300;9.182;2023-06-14T04:01:24;12.60;99.90
4183;DHT22;2105;52.300;9.182;2023-06-14T04:03:52;12.80;99.90
4183;DHT22;2105;52.300;9.182;2023-06-14T04:06:19;12.90;37.70
4183;DHT22;2105;52.300;9.182;2023-06-14T04:08:46;13.10;1.00
4183;DHT22;2105;52.300;9.182;2023-06-14T04:11:16;13.20;1.00
4183;DHT22;2105;52.300;9.182;2023-06-14T04:13:43;13.30;1.00
4183;DHT22;2105;52.300;9.182;2023-06-14T04:16:10;13.40;1.00
4183;DHT22;2105;52.300;9.182;2023-06-14T04:18:37;13.50;1.00
4183;DHT22;2105;52.300;9.182;2023-06-14T04:21:03;13.70;99.90
4183;DHT22;2105;52.300;9.182;2023-06-14T04:23:31;13.80;99.90
4183;DHT22;2105;52.300;9.182;2023-06-14T04:25:58;14.00;99.90
4183;DHT22;2105;52.300;9.182;2023-06-14T04:28:29;14.10;99.90
4183;DHT22;2105;52.300;9.182;2023-06-14T04:30:57;14.20;99.90
4183;DHT22;2105;52.300;9.182;2023-06-14T04:33:27;14.40;99.90
4183;DHT22;2105;52.300;9.182;2023-06-14T04:35:53;14.50;99.90
4183;DHT22;2105;52.300;9.182;2023-06-14T04:38:21;14.60;98.10
4183;DHT22;2105;52.300;9.182;2023-06-14T04:40:50;14.80;1.00
4183;DHT22;2105;52.300;9.182;2023-06-14T04:43:18;14.90;1.00
4183;DHT22;2105;52.300;9.182;2023-06-14T04:45:53;15.00;1.00
4183;DHT22;2105;52.300;9.182;2023-06-14T04:48:21;15.10;1.00
4183;DHT22;2105;52.300;9.182;2023-06-14T04:50:48;15.30;99.90
4183;DHT22;2105;52.300;9.182;2023-06-14T04:53:18;15.50;99.90
4183;DHT22;2105;52.300;9.182;2023-06-14T04:55:46;15.60;99.90
4183;DHT22;2105;52.300;9.182;2023-06-14T04:58:13;15.70;4.20
4183;DHT22;2105;52.300;9.182;2023-06-14T05:00:40;15.70;1.00
4183;DHT22;2105;52.300;9.182;2023-06-14T05:03:10;15.90;1.00
4183;DHT22;2105;52.300;9.182;2023-06-14T05:05:39;16.00;1.00
4183;DHT22;2105;52.300;9.182;2023-06-14T05:08:05;16.10;1.00
4183;DHT22;2105;52.300;9.182;2023-06-14T05:10:32;16.10;1.00
4183;DHT22;2105;52.300;9.182;2023-06-14T05:13:00;16.20;1.00
4183;DHT22;2105;52.300;9.182;2023-06-14T05:15:27;16.30;1.00
4183;DHT22;2105;52.300;9.182;2023-06-14T05:17:54;16.40;1.00
4183;DHT22;2105;52.300;9.182;2023-06-14T05:20:22;16.40;1.00
4183;DHT22;2105;52.300;9.182;2023-06-14T05:22:50;16.40;1.00
4183;DHT22;2105;52.300;9.182;2023-06-14T05:25:18;16.50;1.00
4183;DHT22;2105;52.300;9.182;2023-06-14T05:27:44;16.60;1.00
4183;DHT22;2105;52.300;9.182;2023-06-14T05:30:12;16.60;1.00
4183;DHT22;2105;52.300;9.182;2023-06-14T05:32:39;16.70;1.00
4183;DHT22;2105;52.300;9.182;2023-06-14T05:35:07;16.90;1.00
4183;DHT22;2105;52.300;9.182;2023-06-14T05:37:35;16.80;1.00
4183;DHT22;2105;52.300;9.182;2023-06-14T05:40:02;16.80;99.90
4183;DHT22;2105;52.300;9.182;2023-06-14T05:42:31;16.80;1.00
4183;DHT22;2105;52.300;9.182;2023-06-14T05:44:57;16.70;1.00
4183;DHT22;2105;52.300;9.182;2023-06-14T05:47:24;16.70;99.90
4183;DHT22;2105;52.300;9.182;2023-06-14T05:49:51;16.60;1.00
4183;DHT22;2105;52.300;9.182;2023-06-14T05:52:17;16.70;1.00
4183;DHT22;2105;52.300;9.182;2023-06-14T05:54:46;16.70;1.00
4183;DHT22;2105;52.300;9.182;2023-06-14T05:57:13;16.70;99.90
4183;DHT22;2105;52.300;9.182;2023-06-14T05:59:40;16.70;99.90
4183;DHT22;2105;52.300;9.182;2023-06-14T06:02:06;16.70;1.00
4183;DHT22;2105;52.300;9.182;2023-06-14T06:04:33;16.80;1.00
4183;DHT22;2105;52.300;9.182;2023-06-14T06:07:00;16.80;1.00
4183;DHT22;2105;52.300;9.182;2023-06-14T06:09:27;16.90;99.90
4183;DHT22;2105;52.300;9.182;2023-06-14T06:11:55;16.90;99.90
4183;DHT22;2105;52.300;9.182;2023-06-14T06:14:21;16.90;99.90
4183;DHT22;2105;52.300;9.182;2023-06-14T06:16:48;16.80;99.90
4183;DHT22;2105;52.300;9.182;2023-06-14T06:19:15;16.90;99.90
4183;DHT22;2105;52.300;9.182;2023-06-14T06:21:42;16.90;99.90
4183;DHT22;2105;52.300;9.182;2023-06-14T06:24:08;17.00;99.90
4183;DHT22;2105;52.300;9.182;2023-06-14T06:26:35;17.00;99.90
4183;DHT22;2105;52.300;9.182;2023-06-14T06:29:03;17.10;99.90
4183;DHT22;2105;52.300;9.182;2023-06-14T06:31:30;17.20;99.90
4183;DHT22;2105;52.300;9.182;2023-06-14T06:33:57;17.20;99.90
4183;DHT22;2105;52.300;9.182;2023-06-14T06:36:24;17.20;99.90
4183;DHT22;2105;52.300;9.182;2023-06-14T06:38:50;17.30;99.90
4183;DHT22;2105;52.300;9.182;2023-06-14T06:41:19;17.40;99.90
4183;DHT22;2105;52.300;9.182;2023-06-14T06:43:45;17.60;99.90
4183;DHT22;2105;52.300;9.182;2023-06-14T06:46:13;17.60;99.90
4183;DHT22;2105;52.300;9.182;2023-06-14T06:48:40;17.80;99.90
4183;DHT22;2105;52.300;9.182;2023-06-14T06:51:07;17.80;91.60
4183;DHT22;2105;52.300;9.182;2023-06-14T06:53:33;17.80;99.90
4183;DHT22;2105;52.300;9.182;2023-06-14T06:56:00;17.70;32.20
4183;DHT22;2105;52.300;9.182;2023-06-14T06:58:26;17.90;85.30
4183;DHT22;2105;52.300;9.182;2023-06-14T07:00:53;18.00;15.00
4183;DHT22;2105;52.300;9.182;2023-06-14T07:03:21;18.30;99.90
4183;DHT22;2105;52.300;9.182;2023-06-14T07:05:48;18.50;78.70
4183;DHT22;2105;52.300;9.182;2023-06-14T07:08:15;18.70;27.50
4183;DHT22;2105;52.300;9.182;2023-06-14T07:10:41;19.10;1.00
4183;DHT22;2105;52.300;9.182;2023-06-14T07:13:08;19.20;1.00
4183;DHT22;2105;52.300;9.182;2023-06-14T07:15:35;19.40;1.00
4183;DHT22;2105;52.300;9.182;2023-06-14T07:18:02;19.70;1.00
4183;DHT22;2105;52.300;9.182;2023-06-14T07:20:30;19.70;1.00
4183;DHT22;2105;52.300;9.182;2023-06-14T07:22:58;20.00;1.00
4183;DHT22;2105;52.300;9.182;2023-06-14T07:25:25;20.20;1.00
4183;DHT22;2105;52.300;9.182;2023-06-14T07:27:52;20.40;1.00
4183;DHT22;2105;52.300;9.182;2023-06-14T07:30:19;20.50;1.00
4183;DHT22;2105;52.300;9.182;2023-06-14T07:32:46;20.40;1.00
4183;DHT22;2105;52.300;9.182;2023-06-14T07:35:13;20.40;1.00
4183;DHT22;2105;52.300;9.182;2023-06-14T07:37:41;20.40;1.00
4183;DHT22;2105;52.300;9.182;2023-06-14T07:40:08;20.50;1.00
4183;DHT22;2105;52.300;9.182;2023-06-14T07:42:35;20.50;1.00
4183;DHT22;2105;52.300;9.182;2023-06-14T07:45:02;20.60;1.00
4183;DHT22;2105;52.300;9.182;2023-06-14T07:47:29;21.00;1.00
4183;DHT22;2105;52.300;9.182;2023-06-14T07:49:56;21.10;1.00
4183;DHT22;2105;52.300;9.182;2023-06-14T07:52:22;21.00;1.00
4183;DHT22;2105;52.300;9.182;2023-06-14T07:54:51;20.50;1.00
4183;DHT22;2105;52.300;9.182;2023-06-14T07:57:17;20.30;1.00
4183;DHT22;2105;52.300;9.182;2023-06-14T07:59:45;20.20;1.00
4183;DHT22;2105;52.300;9.182;2023-06-14T08:02:12;20.20;1.00
4183;DHT22;2105;52.300;9.182;2023-06-14T08:04:39;20.10;1.00
4183;DHT22;2105;52.300;9.182;2023-06-14T08:07:06;20.20;1.00
4183;DHT22;2105;52.300;9.182;2023-06-14T08:09:32;20.40;1.00
4183;DHT22;2105;52.300;9.182;2023-06-14T08:12:00;20.40;1.00
4183;DHT22;2105;52.300;9.182;2023-06-14T08:14:27;20.20;1.00
4183;DHT22;2105;52.300;9.182;2023-06-14T08:16:55;20.30;1.00
4183;DHT22;2105;52.300;9.182;2023-06-14T08:19:21;20.20;1.00
4183;DHT22;2105;52.300;9.182;2023-06-14T08:21:48;20.20;1.00
4183;DHT22;2105;52.300;9.182;2023-06-14T08:24:15;20.10;1.00
4183;DHT22;2105;52.300;9.182;2023-06-14T08:26:44;20.30;1.00
4183;DHT22;2105;52.300;9.182;2023-06-14T08:29:12;20.50;1.00
4183;DHT22;2105;52.300;9.182;2023-06-14T08:31:38;20.80;1.00
4183;DHT22;2105;52.300;9.182;2023-06-14T08:34:06;20.50;1.00
4183;DHT22;2105;52.300;9.182;2023-06-14T08:36:32;20.20;1.00
4183;DHT22;2105;52.300;9.182;2023-06-14T08:38:59;20.30;1.00
4183;DHT22;2105;52.300;9.182;2023-06-14T08:41:26;20.40;1.00
4183;DHT22;2105;52.300;9.182;2023-06-14T08:43:55;20.40;1.00
4183;DHT22;2105;52.300;9.182;2023-06-14T08:46:25;20.40;1.00
4183;DHT22;2105;52.300;9.182;2023-06-14T08:48:55;20.60;1.00
4183;DHT22;2105;52.300;9.182;2023-06-14T08:51:25;20.70;1.00
4183;DHT22;2105;52.300;9.182;2023-06-14T08:53:53;20.70;1.00
4183;DHT22;2105;52.300;9.182;2023-06-14T08:56:24;20.80;1.00
4183;DHT22;2105;52.300;9.182;2023-06-14T08:58:53;21.00;1.00
4183;DHT22;2105;52.300;9.182;2023-06-14T09:01:20;21.30;1.00
4183;DHT22;2105;52.300;9.182;2023-06-14T09:03:49;21.50;99.90
4183;DHT22;2105;52.300;9.182;2023-06-14T09:06:17;21.30;99.90
4183;DHT22;2105;52.300;9.182;2023-06-14T09:08:45;21.20;99.90
4183;DHT22;2105;52.300;9.182;2023-06-14T09:11:14;21.10;99.90
4183;DHT22;2105;52.300;9.182;2023-06-14T09:13:41;21.20;99.90
4183;DHT22;2105;52.300;9.182;2023-06-14T09:16:08;21.00;1.00
4183;DHT22;2105;52.300;9.182;2023-06-14T09:18:36;21.10;1.00
4183;DHT22;2105;52.300;9.182;2023-06-14T09:21:05;20.90;99.90
4183;DHT22;2105;52.300;9.182;2023-06-14T09:23:35;21.10;99.90
4183;DHT22;2105;52.300;9.182;2023-06-14T09:26:06;21.20;99.90
4183;DHT22;2105;52.300;9.182;2023-06-14T09:28:33;21.20;99.90
4183;DHT22;2105;52.300;9.182;2023-06-14T09:31:01;21.40;99.90
4183;DHT22;2105;52.300;9.182;2023-06-14T09:33:28;21.40;99.90
4183;DHT22;2105;52.300;9.182;2023-06-14T09:35:55;21.30;99.90
4183;DHT22;2105;52.300;9.182;2023-06-14T09:38:24;21.40;99.90
4183;DHT22;2105;52.300;9.182;2023-06-14T09:40:51;21.50;99.90
4183;DHT22;2105;52.300;9.182;2023-06-14T09:43:19;21.70;99.90
4183;DHT22;2105;52.300;9.182;2023-06-14T09:45:48;21.80;99.90
4183;DHT22;2105;52.300;9.182;2023-06-14T09:48:15;22.00;99.90
4183;DHT22;2105;52.300;9.182;2023-06-14T09:50:45;22.20;99.90
4183;DHT22;2105;52.300;9.182;2023-06-14T09:53:13;22.10;99.90
4183;DHT22;2105;52.300;9.182;2023-06-14T09:55:42;21.90;99.90
4183;DHT22;2105;52.300;9.182;2023-06-14T09:58:10;21.90;99.90
4183;DHT22;2105;52.300;9.182;2023-06-14T10:00:39;22.00;99.90
4183;DHT22;2105;52.300;9.182;2023-06-14T10:03:12;22.00;99.90
4183;DHT22;2105;52.300;9.182;2023-06-14T10:05:42;22.20;99.90
4183;DHT22;2105;52.300;9.182;2023-06-14T10:08:13;22.50;99.90
4183;DHT22;2105;52.300;9.182;2023-06-14T10:10:42;22.80;99.90
4183;DHT22;2105;52.300;9.182;2023-06-14T10:13:09;22.80;99.90
4183;DHT22;2105;52.300;9.182;2023-06-14T10:15:42;22.80;99.90
4183;DHT22;2105;52.300;9.182;2023-06-14T10:18:17;23.00;99.90
4183;DHT22;2105;52.300;9.182;2023-06-14T10:20:53;23.10;99.90
4183;DHT22;2105;52.300;9.182;2023-06-14T10:23:23;23.10;99.90
4183;DHT22;2105;52.300;9.182;2023-06-14T10:25:54;23.30;99.90
4183;DHT22;2105;52.300;9.182;2023-06-14T10:28:22;23.50;99.90
4183;DHT22;2105;52.300;9.182;2023-06-14T10:31:06;23.30;99.90
4183;DHT22;2105;52.300;9.182;2023-06-14T10:33:34;23.20;99.90
4183;DHT22;2105;52.300;9.182;2023-06-14T10:39:01;23.40;99.90
4183;DHT22;2105;52.300;9.182;2023-06-14T10:41:35;23.50;99.90
4183;DHT22;2105;52.300;9.182;2023-06-14T10:44:38;23.40;99.90
4183;DHT22;2105;52.300;9.182;2023-06-14T10:47:10;23.10;99.90
4183;DHT22;2105;52.300;9.182;2023-06-14T10:49:43;23.10;99.90
4183;DHT22;2105;52.300;9.182;2023-06-14T10:52:12;23.50;99.90
4183;DHT22;2105;52.300;9.182;2023-06-14T10:55:12;23.60;99.90
4183;DHT22;2105;52.300;9.182;2023-06-14T10:57:43;23.60;99.90
4183;DHT22;2105;52.300;9.182;2023-06-14T11:00:12;23.40;99.90
4183;DHT22;2105;52.300;9.182;2023-06-14T11:05:51;23.60;99.90
4183;DHT22;2105;52.300;9.182;2023-06-14T11:08:38;23.80;99.90
4183;DHT22;2105;52.300;9.182;2023-06-14T11:11:07;23.90;99.90
4183;DHT22;2105;52.300;9.182;2023-06-14T11:13:37;23.80;99.90
4183;DHT22;2105;52.300;9.182;2023-06-14T11:16:10;23.60;99.90
4183;DHT22;2105;52.300;9.182;2023-06-14T11:18:37;23.40;99.90
4183;DHT22;2105;52.300;9.182;2023-06-14T11:21:03;23.40;99.90
4183;DHT22;2105;52.300;9.182;2023-06-14T11:23:30;23.40;99.90
4183;DHT22;2105;52.300;9.182;2023-06-14T11:25:57;23.60;99.90
4183;DHT22;2105;52.300;9.182;2023-06-14T11:28:24;23.60;99.90
4183;DHT22;2105;52.300;9.182;2023-06-14T11:31:01;23.60;99.90
4183;DHT22;2105;52.300;9.182;2023-06-14T11:33:28;23.70;99.90
4183;DHT22;2105;52.300;9.182;2023-06-14T11:35:55;23.80;99.90
4183;DHT22;2105;52.300;9.182;2023-06-14T11:38:22;23.90;99.90
4183;DHT22;2105;52.300;9.182;2023-06-14T11:40:48;24.10;99.90
4183;DHT22;2105;52.300;9.182;2023-06-14T11:43:15;24.00;99.90
4183;DHT22;2105;52.300;9.182;2023-06-14T11:45:42;24.20;99.90
4183;DHT22;2105;52.300;9.182;2023-06-14T11:48:10;24.40;99.90
4183;DHT22;2105;52.300;9.182;2023-06-14T11:50:38;24.40;99.90
4183;DHT22;2105;52.300;9.182;2023-06-14T11:53:05;24.30;99.90
4183;DHT22;2105;52.300;9.182;2023-06-14T11:55:36;24.70;99.90
4183;DHT22;2105;52.300;9.182;2023-06-14T11:58:03;25.10;99.90
4183;DHT22;2105;52.300;9.182;2023-06-14T12:00:30;25.20;99.90
4183;DHT22;2105;52.300;9.182;2023-06-14T12:02:57;25.10;99.90
4183;DHT22;2105;52.300;9.182;2023-06-14T12:05:26;25.30;99.90
4183;DHT22;2105;52.300;9.182;2023-06-14T12:07:58;25.30;99.90
4183;DHT22;2105;52.300;9.182;2023-06-14T12:10:26;24.90;99.90
4183;DHT22;2105;52.300;9.182;2023-06-14T12:12:57;24.60;99.90
4183;DHT22;2105;52.300;9.182;2023-06-14T12:15:23;24.30;99.90
4183;DHT22;2105;52.300;9.182;2023-06-14T12:17:50;24.40;99.90
4183;DHT22;2105;52.300;9.182;2023-06-14T12:20:18;24.20;99.90
4183;DHT22;2105;52.300;9.182;2023-06-14T12:22:51;24.30;99.90
4183;DHT22;2105;52.300;9.182;2023-06-14T12:25:31;24.30;99.90
4183;DHT22;2105;52.300;9.182;2023-06-14T12:27:58;24.20;99.90
4183;DHT22;2105;52.300;9.182;2023-06-14T12:30:25;24.60;99.90
4183;DHT22;2105;52.300;9.182;2023-06-14T12:32:52;24.30;99.90
4183;DHT22;2105;52.300;9.182;2023-06-14T12:35:18;24.20;99.90
4183;DHT22;2105;52.300;9.182;2023-06-14T12:37:45;23.90;99.90
4183;DHT22;2105;52.300;9.182;2023-06-14T12:40:13;23.80;99.90
4183;DHT22;2105;52.300;9.182;2023-06-14T12:42:40;24.20;99.90
4183;DHT22;2105;52.300;9.182;2023-06-14T12:45:08;24.20;99.90
4183;DHT22;2105;52.300;9.182;2023-06-14T12:47:35;24.70;99.90
4183;DHT22;2105;52.300;9.182;2023-06-14T12:50:02;25.10;99.90
4183;DHT22;2105;52.300;9.182;2023-06-14T12:52:29;25.10;99.90
4183;DHT22;2105;52.300;9.182;2023-06-14T12:54:56;25.20;99.90
4183;DHT22;2105;52.300;9.182;2023-06-14T12:57:24;25.30;99.90
4183;DHT22;2105;52.300;9.182;2023-06-14T12:59:51;25.70;99.90
4183;DHT22;2105;52.300;9.182;2023-06-14T13:02:19;25.80;99.90
4183;DHT22;2105;52.300;9.182;2023-06-14T13:04:47;25.60;99.90
4183;DHT22;2105;52.300;9.182;2023-06-14T13:07:14;25.30;99.90
4183;DHT22;2105;52.300;9.182;2023-06-14T13:09:41;24.70;99.90
4183;DHT22;2105;52.300;9.182;2023-06-14T13:12:10;24.20;99.90
4183;DHT22;2105;52.300;9.182;2023-06-14T13:14:39;23.80;99.90
4183;DHT22;2105;52.300;9.182;2023-06-14T13:17:07;23.80;99.90
4183;DHT22;2105;52.300;9.182;2023-06-14T13:19:34;23.80;99.90
4183;DHT22;2105;52.300;9.182;2023-06-14T13:22:01;24.00;99.90
4183;DHT22;2105;52.300;9.182;2023-06-14T13:24:28;24.30;99.90
4183;DHT22;2105;52.300;9.182;2023-06-14T13:26:55;24.60;99.90
4183;DHT22;2105;52.300;9.182;2023-06-14T13:29:23;24.80;99.90
4183;DHT22;2105;52.300;9.182;2023-06-14T13:31:51;25.20;99.90
4183;DHT22;2105;52.300;9.182;2023-06-14T13:34:17;25.50;99.90
4183;DHT22;2105;52.300;9.182;2023-06-14T13:36:44;25.70;99.90
4183;DHT22;2105;52.300;9.182;2023-06-14T13:39:11;25.80;99.90
4183;DHT22;2105;52.300;9.182;2023-06-14T13:41:38;25.90;99.90
4183;DHT22;2105;52.300;9.182;2023-06-14T13:44:05;26.10;99.90
4183;DHT22;2105;52.300;9.182;2023-06-14T13:46:31;26.20;99.90
4183;DHT22;2105;52.300;9.182;2023-06-14T13:48:59;26.50;99.90
4183;DHT22;2105;52.300;9.182;2023-06-14T13:51:27;26.70;99.90
4183;DHT22;2105;52.300;9.182;2023-06-14T13:53:54;26.80;99.90
4183;DHT22;2105;52.300;9.182;2023-06-14T13:56:21;26.70;99.90
4183;DHT22;2105;52.300;9.182;2023-06-14T13:58:50;26.40;99.90
4183;DHT22;2105;52.300;9.182;2023-06-14T14:01:17;26.10;99.90
4183;DHT22;2105;52.300;9.182;2023-06-14T14:03:45;25.90;99.90
4183;DHT22;2105;52.300;9.182;2023-06-14T14:06:13;26.20;99.90
4183;DHT22;2105;52.300;9.182;2023-06-14T14:08:40;26.40;99.90
4183;DHT22;2105;52.300;9.182;2023-06-14T14:11:06;26.00;99.90
4183;DHT22;2105;52.300;9.182;2023-06-14T14:13:34;26.10;99.90
4183;DHT22;2105;52.300;9.182;2023-06-14T14:16:02;26.30;99.90
4183;DHT22;2105;52.300;9.182;2023-06-14T14:18:29;26.50;99.90
4183;DHT22;2105;52.300;9.182;2023-06-14T14:20:56;26.60;99.90
4183;DHT22;2105;52.300;9.182;2023-06-14T14:23:25;26.40;99.90
4183;DHT22;2105;52.300;9.182;2023-06-14T14:25:51;26.30;99.90
4183;DHT22;2105;52.300;9.182;2023-06-14T14:28:18;26.00;99.90
4183;DHT22;2105;52.300;9.182;2023-06-14T14:30:46;26.10;99.90
4183;DHT22;2105;52.300;9.182;2023-06-14T14:33:12;26.20;99.90
4183;DHT22;2105;52.300;9.182;2023-06-14T14:35:41;26.40;99.90
4183;DHT22;2105;52.300;9.182;2023-06-14T14:38:08;26.40;99.90
4183;DHT22;2105;52.300;9.182;2023-06-14T14:40:36;26.70;99.90
4183;DHT22;2105;52.300;9.182;2023-06-14T14:43:03;26.50;99.90
4183;DHT22;2105;52.300;9.182;2023-06-14T14:45:30;26.10;99.90
4183;DHT22;2105;52.300;9.182;2023-06-14T14:47:57;25.40;99.90
4183;DHT22;2105;52.300;9.182;2023-06-14T14:50:25;25.20;99.90
4183;DHT22;2105;52.300;9.182;2023-06-14T14:52:52;24.90;99.90
4183;DHT22;2105;52.300;9.182;2023-06-14T14:55:18;24.80;99.90
4183;DHT22;2105;52.300;9.182;2023-06-14T14:57:47;24.70;99.90
4183;DHT22;2105;52.300;9.182;2023-06-14T15:00:14;24.50;99.90
4183;DHT22;2105;52.300;9.182;2023-06-14T15:02:41;24.30;99.90
4183;DHT22;2105;52.300;9.182;2023-06-14T15:05:08;24.50;99.90
4183;DHT22;2105;52.300;9.182;2023-06-14T15:07:34;25.00;99.90
4183;DHT22;2105;52.300;9.182;2023-06-14T15:10:01;25.50;99.90
4183;DHT22;2105;52.300;9.182;2023-06-14T15:12:28;25.80;99.90
4183;DHT22;2105;52.300;9.182;2023-06-14T15:14:56;25.90;99.90
4183;DHT22;2105;52.300;9.182;2023-06-14T15:17:23;26.00;99.90
4183;DHT22;2105;52.300;9.182;2023-06-14T15:19:50;26.10;99.90
4183;DHT22;2105;52.300;9.182;2023-06-14T15:22:17;25.90;99.90
4183;DHT22;2105;52.300;9.182;2023-06-14T15:24:44;25.90;99.90
4183;DHT22;2105;52.300;9.182;2023-06-14T15:27:11;25.40;99.90
4183;DHT22;2105;52.300;9.182;2023-06-14T15:29:39;25.10;99.90
4183;DHT22;2105;52.300;9.182;2023-06-14T15:32:08;24.60;99.90
4183;DHT22;2105;52.300;9.182;2023-06-14T15:34:36;24.30;99.90
4183;DHT22;2105;52.300;9.182;2023-06-14T15:37:05;24.10;99.90
4183;DHT22;2105;52.300;9.182;2023-06-14T15:39:32;24.10;99.90
4183;DHT22;2105;52.300;9.182;2023-06-14T15:41:59;24.20;99.90
4183;DHT22;2105;52.300;9.182;2023-06-14T15:44:26;24.60;99.90
4183;DHT22;2105;52.300;9.182;2023-06-14T15:46:53;24.80;99.90
4183;DHT22;2105;52.300;9.182;2023-06-14T15:49:21;24.80;99.90
4183;DHT22;2105;52.300;9.182;2023-06-14T15:51:48;25.10;99.90
4183;DHT22;2105;52.300;9.182;2023-06-14T15:54:15;25.10;99.90
4183;DHT22;2105;52.300;9.182;2023-06-14T15:56:42;25.20;99.90
4183;DHT22;2105;52.300;9.182;2023-06-14T15:59:08;25.20;99.90
4183;DHT22;2105;52.300;9.182;2023-06-14T16:01:35;25.20;99.90
4183;DHT22;2105;52.300;9.182;2023-06-14T16:04:02;25.40;99.90
4183;DHT22;2105;52.300;9.182;2023-06-14T16:06:31;25.60;99.90
4183;DHT22;2105;52.300;9.182;2023-06-14T16:08:57;25.80;99.90
4183;DHT22;2105;52.300;9.182;2023-06-14T16:11:24;26.00;99.90
4183;DHT22;2105;52.300;9.182;2023-06-14T16:13:51;26.00;99.90
4183;DHT22;2105;52.300;9.182;2023-06-14T16:16:18;26.10;99.90
4183;DHT22;2105;52.300;9.182;2023-06-14T16:18:46;25.80;99.90